Time;durP1;ratioP1;P1;durP2;ratioP2;P2;SDS_P1;SDS_P2;PMS_P1;PMS_P2;Temp;Humidity;BMP_temperature;BMP_pressure;BME280_temperature;BME280_humidity;BME280_pressure;Samples;Min_cycle;Max_cycle;Signal;HPM_P1;HPM_P2
2021/12/29 00:01:10;;;;;;;18.23;7.30;;;10.60;99.90;;;10.58;100.00;100042.97;5094959;28;20052;-67
2021/12/29 00:03:38;;;;;;;19.23;7.05;;;10.50;99.90;;;10.58;100.00;100052.69;5113107;28;20054;-68
2021/12/29 00:06:07;;;;;;;18.02;7.03;;;10.50;99.90;;;10.60;100.00;100067.63;5113056;28;20040;-67
2021/12/29 00:08:35;;;;;;;19.45;7.55;;;10.50;99.90;;;10.54;100.00;100064.19;5113047;28;20458;-67
2021/12/29 00:11:04;;;;;;;18.77;6.55;;;10.50;99.90;;;10.62;100.00;100060.53;5112965;28;20421;-67
2021/12/29 00:13:33;;;;;;;21.58;7.72;;;10.50;99.90;;;10.60;100.00;100061.47;5112736;28;20126;-67
2021/12/29 00:16:05;;;;;;;23.75;7.60;;;10.50;99.90;;;10.65;100.00;100059.59;5113246;28;20055;-68
2021/12/29 00:18:36;;;;;;;15.80;6.53;;;10.60;99.90;;;10.61;100.00;100061.41;5094772;28;20055;-68
2021/12/29 00:21:07;;;;;;;19.15;6.70;;;10.60;99.90;;;10.67;100.00;100087.75;5113302;28;20084;-68
2021/12/29 00:23:36;;;;;;;16.25;6.60;;;10.60;99.90;;;10.69;100.00;100100.94;5112663;28;20044;-68
2021/12/29 00:26:25;;;;;;;14.98;6.72;;;10.60;99.90;;;10.65;100.00;100108.06;5112874;28;20051;-67
2021/12/29 00:28:53;;;;;;;15.98;6.13;;;10.60;99.90;;;10.74;100.00;100096.47;5112812;28;20489;-68
2021/12/29 00:31:23;;;;;;;16.38;5.43;;;10.60;99.90;;;10.64;100.00;100090.47;5112532;28;20040;-68
2021/12/29 00:34:21;;;;;;;14.85;6.22;;;10.60;99.90;;;10.53;100.00;100083.63;5057145;28;20057;-68
2021/12/29 00:37:08;;;;;;;19.48;6.57;;;10.50;99.90;;;10.57;100.00;100093.22;5113119;28;20150;-67
2021/12/29 00:39:55;;;;;;;14.20;6.18;;;10.50;99.90;;;10.58;100.00;100105.56;5112803;28;20101;-68
2021/12/29 00:42:45;;;;;;;18.52;7.22;;;10.50;99.90;;;10.54;100.00;100094.16;5081772;28;20059;-67
2021/12/29 00:45:51;;;;;;;16.55;7.35;;;10.50;99.90;;;10.58;100.00;100097.63;5115810;28;20083;-67
2021/12/29 00:48:25;;;;;;;17.02;8.15;;;10.50;99.90;;;10.44;100.00;100092.56;5116583;28;20067;-68
2021/12/29 00:50:53;;;;;;;23.27;8.13;;;10.50;99.90;;;10.54;100.00;100117.97;5116085;28;20036;-68
2021/12/29 00:53:22;;;;;;;22.50;8.02;;;10.40;99.90;;;10.47;100.00;100123.38;5097915;28;20063;-68
2021/12/29 00:55:51;;;;;;;19.77;7.65;;;10.40;99.90;;;10.49;100.00;100121.59;5098147;28;20047;-68
2021/12/29 00:58:22;;;;;;;19.33;7.82;;;10.40;99.90;;;10.49;100.00;100125.06;5116204;28;20044;-68
2021/12/29 01:00:51;;;;;;;18.33;7.68;;;10.40;99.90;;;10.46;100.00;100132.19;5116172;28;20083;-68
2021/12/29 01:03:21;;;;;;;19.17;7.60;;;10.40;99.90;;;10.45;100.00;100135.75;5115781;28;20050;-67
2021/12/29 01:05:50;;;;;;;20.65;8.30;;;10.30;99.90;;;10.44;100.00;100144.56;5097687;28;20476;-67
2021/12/29 01:08:18;;;;;;;17.67;6.80;;;10.30;99.90;;;10.51;100.00;100148.88;5115658;28;20038;-68
2021/12/29 01:10:47;;;;;;;12.63;6.32;;;10.40;99.90;;;10.65;100.00;100160.09;5115617;28;20048;-68
2021/12/29 01:13:19;;;;;;;19.85;6.80;;;10.50;99.90;;;10.49;100.00;100159.44;5115466;28;20102;-68
2021/12/29 01:15:57;;;;;;;14.05;6.50;;;10.40;99.90;;;10.52;100.00;100169.13;5116157;28;20051;-68
2021/12/29 01:18:28;;;;;;;11.43;6.63;;;10.40;99.90;;;10.58;100.00;100174.31;5115887;28;20096;-68
2021/12/29 01:20:57;;;;;;;19.80;7.05;;;10.50;99.90;;;10.57;100.00;100170.78;5097528;28;20051;-68
2021/12/29 01:23:26;;;;;;;20.85;6.85;;;10.50;99.90;;;10.54;100.00;100177.91;5115917;28;20495;-68
2021/12/29 01:25:54;;;;;;;16.38;6.43;;;10.50;99.90;;;10.51;100.00;100196.47;5115465;28;20044;-68
2021/12/29 01:28:23;;;;;;;19.13;6.78;;;10.40;99.90;;;10.57;100.00;100199.00;5115824;28;20122;-68
2021/12/29 01:30:52;;;;;;;13.75;6.00;;;10.40;99.90;;;10.58;100.00;100217.50;5115264;28;20046;-67
2021/12/29 01:33:21;;;;;;;12.40;6.10;;;10.50;99.90;;;10.50;100.00;100210.56;5115246;28;20104;-68
2021/12/29 01:35:51;;;;;;;17.60;6.55;;;10.40;99.90;;;10.42;100.00;100218.59;5115477;28;20100;-68
2021/12/29 01:38:19;;;;;;;15.65;7.00;;;10.30;99.90;;;10.60;100.00;100217.47;5115732;28;20040;-68
2021/12/29 01:40:49;;;;;;;19.35;7.20;;;10.50;99.90;;;10.55;100.00;100228.09;5097104;28;20071;-68
2021/12/29 01:43:19;;;;;;;19.33;7.32;;;10.50;99.90;;;10.39;100.00;100236.28;5115247;28;20120;-67
2021/12/29 01:45:48;;;;;;;21.50;7.35;;;10.30;99.90;;;10.43;100.00;100225.63;5114904;28;20047;-68
2021/12/29 01:48:17;;;;;;;17.83;8.20;;;10.30;99.90;;;10.40;100.00;100227.44;5115166;28;20047;-67
2021/12/29 01:50:50;;;;;;;21.85;7.57;;;10.30;99.90;;;10.33;100.00;100233.72;5115112;28;20105;-68
2021/12/29 01:53:26;;;;;;;17.73;7.53;;;10.30;99.90;;;10.40;100.00;100222.16;5115195;28;20105;-68
2021/12/29 01:55:55;;;;;;;26.88;8.82;;;10.30;99.90;;;10.38;100.00;100224.84;5114729;28;20079;-68
2021/12/29 01:58:26;;;;;;;15.45;7.70;;;10.30;99.90;;;10.29;100.00;100234.66;5096711;28;20456;-67
2021/12/29 02:00:59;;;;;;;20.13;6.97;;;10.20;99.90;;;10.39;100.00;100238.94;5096548;28;20061;-68
2021/12/29 02:03:28;;;;;;;19.48;7.40;;;10.30;99.90;;;10.30;100.00;100237.28;5114968;28;20040;-68
2021/12/29 02:05:57;;;;;;;17.88;7.68;;;10.20;99.90;;;10.27;100.00;100247.03;5114411;28;20040;-67
2021/12/29 02:08:27;;;;;;;22.95;8.00;;;10.10;99.90;;;10.46;100.00;100243.22;5114473;28;20044;-68
2021/12/29 02:10:57;;;;;;;22.03;7.70;;;10.30;99.90;;;10.42;100.00;100250.34;5114461;28;20067;-68
2021/12/29 02:13:25;;;;;;;18.05;8.35;;;10.30;99.90;;;10.35;100.00;100245.16;5114696;28;20062;-68
2021/12/29 02:15:54;;;;;;;18.67;8.40;;;10.30;99.90;;;10.38;100.00;100253.91;5114346;28;20134;-67
2021/12/29 02:18:25;;;;;;;24.50;7.13;;;10.30;99.90;;;10.34;100.00;100257.50;5114898;28;20460;-68
2021/12/29 02:20:55;;;;;;;23.73;7.95;;;10.20;99.90;;;10.29;100.00;100247.88;5114666;28;20483;-67
2021/12/29 02:23:31;;;;;;;20.70;8.15;;;10.20;99.90;;;10.41;100.00;100253.00;5114564;28;20108;-67
2021/12/29 02:26:00;;;;;;;21.80;7.10;;;10.30;99.90;;;10.42;100.00;100249.44;5114447;28;20081;-67
2021/12/29 02:28:32;;;;;;;20.98;8.38;;;10.30;99.90;;;10.24;100.00;100221.50;5114330;28;20046;-68
2021/12/29 02:31:01;;;;;;;21.80;7.90;;;10.40;99.90;;;10.48;100.00;100262.59;5114381;28;20039;-68
2021/12/29 02:33:30;;;;;;;19.35;7.93;;;10.40;99.90;;;10.63;100.00;100259.72;5114581;28;20042;-67
2021/12/29 02:36:02;;;;;;;24.33;8.43;;;10.50;99.90;;;10.54;100.00;100257.22;5114247;28;20047;-68
2021/12/29 02:38:35;;;;;;;20.42;8.40;;;10.50;99.90;;;10.55;100.00;100272.22;5113988;28;20051;-68
2021/12/29 02:41:08;;;;;;;20.52;8.45;;;10.50;99.90;;;10.47;100.00;100272.28;5113989;28;20093;-68
2021/12/29 02:43:38;;;;;;;17.08;7.45;;;10.40;99.90;;;10.48;100.00;100276.69;5114166;28;20183;-68
2021/12/29 02:46:11;;;;;;;17.83;7.68;;;10.40;99.90;;;10.51;100.00;100278.44;5113788;28;20152;-68
2021/12/29 02:48:48;;;;;;;16.30;7.40;;;10.40;99.90;;;10.58;100.00;100288.00;5113830;28;20070;-68
2021/12/29 02:51:18;;;;;;;21.13;7.93;;;10.40;99.90;;;10.62;100.00;100292.38;5113725;28;20089;-68
2021/12/29 02:53:47;;;;;;;24.60;9.23;;;10.50;99.90;;;10.66;100.00;100292.31;5113939;28;20075;-68
2021/12/29 02:56:15;;;;;;;27.95;9.82;;;10.50;99.90;;;10.05;100.00;100180.34;5095619;28;20292;-68
2021/12/29 02:58:44;;;;;;;27.45;8.95;;;10.60;99.90;;;10.50;100.00;100298.69;5113637;28;20497;-67
2021/12/29 03:01:15;;;;;;;24.92;7.72;;;10.60;99.90;;;10.57;100.00;100320.63;5113389;28;20090;-67
2021/12/29 03:03:44;;;;;;;22.58;8.45;;;10.50;99.90;;;10.63;100.00;100331.13;5114154;28;20044;-67
2021/12/29 03:06:14;;;;;;;22.27;8.00;;;10.50;99.90;;;10.68;100.00;100335.44;5113334;28;20169;-67
2021/12/29 03:08:43;;;;;;;22.02;6.93;;;10.50;99.90;;;10.88;100.00;100343.13;5113364;28;20048;-67
2021/12/29 03:11:12;;;;;;;17.70;6.82;;;10.70;99.90;;;10.87;100.00;100320.22;5113442;28;20052;-68
2021/12/29 03:13:42;;;;;;;20.60;7.00;;;10.80;99.90;;;10.85;100.00;100336.13;5113649;28;20075;-67
2021/12/29 03:16:12;;;;;;;20.23;7.00;;;10.80;99.90;;;10.83;100.00;100339.69;5113639;28;20108;-67
2021/12/29 03:18:41;;;;;;;22.20;7.33;;;10.80;99.90;;;10.95;100.00;100344.81;5113837;28;20059;-68
2021/12/29 03:21:11;;;;;;;19.15;7.30;;;10.80;99.90;;;10.98;100.00;100350.03;5113497;28;20331;-68
2021/12/29 03:23:40;;;;;;;21.58;6.93;;;10.80;99.90;;;10.90;100.00;100362.50;5095185;28;20401;-67
2021/12/29 03:26:10;;;;;;;31.25;7.65;;;10.80;99.90;;;10.94;100.00;100356.25;5113372;28;20067;-67
2021/12/29 03:28:39;;;;;;;29.67;7.10;;;10.80;99.90;;;10.84;100.00;100362.56;5113785;28;20050;-67
2021/12/29 03:31:11;;;;;;;26.77;6.72;;;10.80;99.90;;;10.89;100.00;100366.94;5113377;28;20035;-68
2021/12/29 03:33:39;;;;;;;25.60;6.47;;;10.80;99.90;;;10.92;100.00;100376.56;5113146;28;20051;-68
2021/12/29 03:36:09;;;;;;;23.80;6.68;;;10.80;99.90;;;10.75;100.00;100354.78;5113070;28;20039;-68
2021/12/29 03:38:40;;;;;;;23.35;6.35;;;10.70;99.90;;;10.85;100.00;100365.22;5113090;28;20055;-68
2021/12/29 03:41:13;;;;;;;23.92;6.45;;;10.80;99.90;;;10.91;100.00;100380.13;5113780;28;20108;-68
2021/12/29 03:43:44;;;;;;;28.25;6.63;;;10.80;99.90;;;10.75;100.00;100378.56;5113053;28;20070;-67
2021/12/29 03:46:15;;;;;;;24.48;6.63;;;10.80;99.90;;;10.71;100.00;100376.88;5112993;28;20044;-67
2021/12/29 03:48:46;;;;;;;25.02;7.10;;;10.60;99.90;;;10.66;100.00;100373.41;5095071;28;20140;-68
2021/12/29 03:51:15;;;;;;;21.73;6.70;;;10.60;99.90;;;10.76;100.00;100383.84;5113278;28;20047;-68
2021/12/29 03:53:44;;;;;;;30.95;7.88;;;10.60;99.90;;;10.71;100.00;100385.69;5112930;28;20504;-68
2021/12/29 03:56:14;;;;;;;29.92;7.10;;;10.60;99.90;;;10.78;100.00;100390.00;5112895;28;20052;-68
2021/12/29 03:58:44;;;;;;;;;;;10.60;99.90;;;10.78;100.00;100390.00;5113624;28;20035;-68
2021/12/29 04:01:15;;;;;;;29.75;7.65;;;10.60;99.90;;;10.84;100.00;100387.25;5113220;28;20034;-68
2021/12/29 04:03:45;;;;;;;26.17;7.32;;;10.70;99.90;;;10.66;100.00;100378.72;5113454;28;20096;-68
2021/12/29 04:06:18;;;;;;;28.63;7.03;;;10.60;99.90;;;10.67;100.00;100383.97;5112941;28;20051;-68
2021/12/29 04:08:47;;;;;;;23.52;7.15;;;10.60;99.90;;;10.81;100.00;100389.97;5112874;28;20045;-68
2021/12/29 04:11:18;;;;;;;26.35;8.13;;;10.60;99.90;;;10.80;100.00;100393.50;5112683;28;20098;-68
2021/12/29 04:13:50;;;;;;;20.05;7.03;;;10.60;99.90;;;10.90;100.00;100396.88;5112858;28;20043;-68
2021/12/29 04:16:18;;;;;;;23.30;7.70;;;10.70;99.90;;;11.01;100.00;100396.75;5112774;28;20602;-68
2021/12/29 04:19:06;;;;;;;23.42;7.43;;;10.80;99.90;;;11.05;100.00;100409.94;5115845;28;20043;-67
2021/12/29 04:21:37;;;;;;;28.23;8.02;;;10.90;99.90;;;10.88;100.00;100401.31;5116649;28;20511;-68
2021/12/29 04:24:06;;;;;;;26.95;6.93;;;10.90;99.90;;;10.96;100.00;100398.56;5098686;28;20458;-68
2021/12/29 04:26:38;;;;;;;22.77;7.03;;;10.80;99.90;;;10.81;100.00;100373.22;5116426;28;20122;-67
2021/12/29 04:29:09;;;;;;;28.63;6.93;;;10.80;99.90;;;11.02;100.00;100404.66;5116740;28;20061;-68
2021/12/29 04:31:38;;;;;;;22.10;7.32;;;10.90;99.90;;;10.91;100.00;100419.81;5116444;28;20553;-68
2021/12/29 04:34:07;;;;;;;23.13;6.97;;;10.90;99.90;;;10.85;100.00;100426.06;5116356;28;20511;-68
2021/12/29 04:36:36;;;;;;;23.23;7.72;;;10.80;99.90;;;10.82;100.00;100415.50;5116338;28;20048;-68
2021/12/29 04:39:06;;;;;;;21.25;7.50;;;10.80;99.90;;;10.91;100.00;100422.47;5116260;28;20122;-68
2021/12/29 04:41:36;;;;;;;25.13;7.88;;;10.80;99.90;;;11.03;100.00;100432.91;5098288;28;20047;-68
2021/12/29 04:44:05;;;;;;;21.17;8.10;;;10.90;99.90;;;10.99;100.00;100433.84;5116267;28;20499;-68
2021/12/29 04:46:39;;;;;;;19.88;7.85;;;10.90;99.90;;;10.92;100.00;100429.50;5116316;28;20071;-68
2021/12/29 04:49:11;;;;;;;20.63;8.43;;;10.80;99.90;;;10.81;100.00;100434.94;5116209;28;20456;-67
2021/12/29 04:51:47;;;;;;;26.15;9.13;;;10.70;99.90;;;10.88;100.00;100430.44;5116094;28;20047;-68
2021/12/29 04:54:16;;;;;;;24.13;8.45;;;10.70;99.90;;;11.03;100.00;100437.31;5097935;28;20047;-67
2021/12/29 04:56:46;;;;;;;21.95;8.73;;;10.90;99.90;;;11.14;100.00;100444.22;5115957;28;20044;-68
2021/12/29 04:59:15;;;;;;;17.60;8.13;;;11.00;99.90;;;11.17;100.00;100443.31;5116032;28;20071;-68
2021/12/29 05:01:45;;;;;;;21.10;7.82;;;11.00;99.90;;;11.15;100.00;100447.75;5115957;28;20320;-68
2021/12/29 05:04:20;;;;;;;21.30;7.65;;;11.00;99.90;;;11.20;100.00;100446.78;5097572;28;20048;-67
2021/12/29 05:09:35;;;;;;;20.63;7.60;;;11.10;99.90;;;11.10;100.00;100450.44;5097880;28;20048;-69
2021/12/29 05:12:06;;;;;;;20.52;8.45;;;11.00;99.90;;;11.13;100.00;100453.03;5115884;28;20400;-67
2021/12/29 05:14:35;;;;;;;20.88;7.97;;;11.00;99.90;;;11.29;100.00;100446.63;5116540;28;20617;-68
2021/12/29 05:17:05;;;;;;;16.95;8.70;;;11.10;99.90;;;11.35;100.00;100441.25;5097446;28;20544;-68
2021/12/29 05:19:34;;;;;;;21.70;8.63;;;11.10;99.90;;;11.41;99.92;100446.47;5115849;28;20047;-68
2021/12/29 05:22:04;;;;;;;23.25;8.95;;;11.20;99.90;;;11.40;99.62;100444.69;5115975;28;20039;-68
2021/12/29 05:24:32;;;;;;;19.90;9.05;;;11.20;99.90;;;11.42;99.38;100442.91;5115947;28;20116;-68
2021/12/29 05:27:02;;;;;;;17.83;7.90;;;11.30;99.90;;;11.45;98.70;100445.53;5115491;28;20454;-68
2021/12/29 05:29:31;;;;;;;21.55;8.43;;;11.30;99.90;;;11.45;99.08;100460.53;5114158;28;20073;-68
2021/12/29 05:32:00;;;;;;;18.73;8.47;;;11.20;99.90;;;11.42;98.98;100469.38;5115916;28;20090;-67
2021/12/29 05:34:28;;;;;;;18.42;8.38;;;11.20;99.90;;;11.37;98.56;100463.28;5115392;28;20507;-68
2021/12/29 05:36:57;;;;;;;19.23;8.15;;;11.20;99.90;;;11.25;98.83;100455.50;5115162;28;20480;-68
2021/12/29 05:39:25;;;;;;;22.55;9.13;;;11.10;99.90;;;11.22;99.06;100459.97;5115185;28;20043;-68
2021/12/29 05:41:54;;;;;;;20.27;8.82;;;11.10;99.90;;;11.33;98.74;100468.66;5115325;28;20040;-68
2021/12/29 05:44:22;;;;;;;20.98;8.30;;;11.10;99.90;;;11.50;98.26;100478.09;5115266;28;20044;-68
2021/12/29 05:46:52;;;;;;;18.58;9.20;;;11.30;99.90;;;11.44;97.80;100479.97;5115364;28;20408;-67
2021/12/29 05:49:20;;;;;;;20.00;8.03;;;11.20;99.90;;;11.49;97.64;100468.41;5115128;28;20048;-68
2021/12/29 05:51:49;;;;;;;18.58;7.75;;;11.30;99.90;;;11.54;97.18;100476.28;5115126;28;20036;-69
2021/12/29 05:54:18;;;;;;;19.13;7.40;;;11.30;99.90;;;11.41;97.13;100486.19;5114810;28;20043;-68
2021/12/29 05:56:46;;;;;;;17.95;7.65;;;11.20;99.90;;;11.44;96.56;100472.03;5115039;28;20047;-67
2021/12/29 05:59:14;;;;;;;19.15;7.70;;;11.20;99.90;;;11.42;95.92;100473.84;5096464;28;20392;-68
2021/12/29 06:01:44;;;;;;;17.48;7.20;;;11.20;99.90;;;11.43;96.43;100486.16;5115319;28;20051;-68
2021/12/29 06:04:14;;;;;;;15.70;7.10;;;11.20;99.90;;;11.56;95.49;100482.44;5114636;28;20039;-67
2021/12/29 06:06:42;;;;;;;11.95;6.60;;;11.30;99.90;;;11.63;94.57;100476.16;5096526;28;20051;-67
2021/12/29 06:09:11;;;;;;;13.80;6.80;;;11.40;99.90;;;11.56;93.20;100480.66;5096400;28;20043;-67
2021/12/29 06:11:39;;;;;;;13.55;5.88;;;11.40;99.90;;;11.60;92.46;100485.03;5114719;28;20100;-67
2021/12/29 06:14:07;;;;;;;11.55;5.65;;;11.40;99.90;;;11.52;91.54;100476.31;5114870;28;20036;-68
2021/12/29 06:16:36;;;;;;;14.02;6.38;;;11.40;99.90;;;11.57;91.12;100474.50;5114364;28;20090;-67
2021/12/29 06:19:04;;;;;;;16.80;7.28;;;11.40;99.90;;;11.58;91.09;100476.22;5114611;28;20094;-68
2021/12/29 06:21:34;;;;;;;15.00;7.45;;;11.40;99.90;;;11.72;91.45;100487.53;5096177;28;20048;-68
2021/12/29 06:24:03;;;;;;;15.10;7.90;;;11.50;99.90;;;11.65;91.60;100471.72;5114227;28;20082;-67
2021/12/29 06:26:31;;;;;;;15.30;8.00;;;11.60;99.90;;;11.81;91.58;100493.59;5114098;28;20099;-67
2021/12/29 06:29:00;;;;;;;15.32;8.52;;;11.60;99.90;;;11.93;92.01;100488.06;5114248;28;20116;-67
2021/12/29 06:31:28;;;;;;;18.42;8.48;;;11.70;99.90;;;11.81;92.22;100473.25;5114239;28;20586;-68
2021/12/29 06:33:57;;;;;;;13.20;8.77;;;11.80;99.90;;;12.01;91.98;100492.38;5113829;28;20048;-68
2021/12/29 06:36:25;;;;;;;16.00;9.93;;;11.90;99.90;;;12.03;92.12;100495.88;5114029;28;20078;-67
2021/12/29 06:38:55;;;;;;;17.80;9.18;;;11.80;99.90;;;12.06;91.85;100489.66;5095890;28;20051;-67
2021/12/29 06:41:24;;;;;;;19.35;8.95;;;11.90;99.90;;;12.15;92.00;100500.09;5113622;28;20051;-67
2021/12/29 06:43:52;;;;;;;14.02;9.30;;;11.90;99.90;;;12.18;91.53;100498.25;5114094;28;20459;-67
2021/12/29 06:46:20;;;;;;;14.32;9.32;;;12.00;99.90;;;12.21;91.43;100500.00;5113852;28;20447;-67
2021/12/29 06:48:49;;;;;;;14.27;9.52;;;12.00;99.90;;;12.25;91.24;100507.00;5113505;28;20082;-67
2021/12/29 06:51:17;;;;;;;16.45;9.55;;;12.00;99.90;;;12.25;91.05;100515.81;5113714;28;20446;-68
2021/12/29 06:53:46;;;;;;;20.60;9.98;;;12.00;99.90;;;12.28;91.03;100515.78;5095584;28;20046;-68
2021/12/29 06:56:16;;;;;;;18.48;10.13;;;12.00;99.90;;;12.30;90.70;100521.03;5113637;28;20126;-67
2021/12/29 06:58:44;;;;;;;15.63;10.13;;;12.10;99.90;;;12.33;90.50;100521.00;5113739;28;20101;-68
2021/12/29 07:01:13;;;;;;;17.65;10.57;;;12.10;99.90;;;12.33;90.52;100519.19;5113649;28;20404;-68
2021/12/29 07:03:42;;;;;;;16.95;10.18;;;12.10;99.90;;;12.34;90.34;100530.69;5095461;28;20097;-68
2021/12/29 07:06:10;;;;;;;16.15;9.38;;;12.10;99.90;;;12.32;90.07;100541.34;5113388;28;20564;-67
2021/12/29 07:08:40;;;;;;;14.20;9.02;;;12.10;99.90;;;12.31;90.19;100542.22;5113075;28;20075;-68
2021/12/29 07:11:08;;;;;;;13.98;8.35;;;12.00;99.90;;;12.32;89.96;100545.75;5113688;28;20130;-67
2021/12/29 07:13:38;;;;;;;14.43;8.45;;;12.10;99.90;;;12.28;90.00;100549.34;5113545;28;20071;-67
2021/12/29 07:16:06;;;;;;;11.55;7.85;;;12.00;99.90;;;12.25;89.92;100549.41;5113314;28;20055;-67
2021/12/29 07:18:35;;;;;;;15.63;9.30;;;12.00;99.90;;;12.21;90.08;100545.06;5113537;28;20043;-68
2021/12/29 07:21:04;;;;;;;17.52;9.40;;;12.00;99.90;;;12.26;89.99;100553.81;5113155;28;20038;-68
2021/12/29 07:23:32;;;;;;;16.65;9.73;;;12.00;99.90;;;12.13;89.89;100552.25;5113385;28;20044;-67
2021/12/29 07:26:01;;;;;;;14.93;8.85;;;12.00;99.90;;;12.19;90.16;100549.53;5113169;28;20119;-68
2021/12/29 07:28:29;;;;;;;16.80;9.32;;;12.00;99.90;;;12.20;90.17;100551.25;5113548;28;20130;-67
2021/12/29 07:30:59;;;;;;;18.10;9.82;;;12.00;99.90;;;12.19;90.36;100544.22;5113115;28;20190;-67
2021/12/29 07:33:27;;;;;;;19.90;9.30;;;12.00;99.90;;;12.17;90.43;100544.25;5113201;28;20096;-67
2021/12/29 07:35:56;;;;;;;20.25;9.63;;;12.00;99.90;;;12.22;90.45;100533.53;5112940;28;20098;-68
2021/12/29 07:38:24;;;;;;;18.20;9.40;;;12.00;99.90;;;12.20;90.29;100527.38;5113066;28;20039;-68
2021/12/29 07:40:53;;;;;;;18.83;9.30;;;12.00;99.90;;;12.22;90.37;100526.47;5094982;28;20039;-67
2021/12/29 07:43:21;;;;;;;16.05;8.63;;;12.00;99.90;;;12.22;90.28;100525.59;5113520;28;20059;-68
2021/12/29 07:45:52;;;;;;;14.07;7.97;;;12.00;99.90;;;12.20;90.17;100530.94;5113209;28;20119;-70
2021/12/29 07:48:27;;;;;;;15.43;8.60;;;12.00;99.90;;;12.21;90.23;100534.47;5113467;28;20124;-73
2021/12/29 07:50:55;;;;;;;19.38;8.48;;;12.00;99.90;;;12.20;90.08;100532.69;5112871;28;20078;-72
2021/12/29 07:53:24;;;;;;;14.50;8.00;;;12.00;99.90;;;12.19;90.24;100528.31;5115251;28;20043;-73
2021/12/29 07:55:52;;;;;;;16.55;8.25;;;12.00;99.90;;;12.21;90.10;100548.59;5117094;28;20047;-72
2021/12/29 07:58:22;;;;;;;16.60;7.88;;;11.90;99.90;;;12.20;90.09;100545.94;5117612;28;20147;-71
2021/12/29 08:00:51;;;;;;;18.13;8.20;;;12.00;99.90;;;12.17;90.14;100540.72;5098706;28;20051;-73
2021/12/29 08:03:22;;;;;;;16.20;7.80;;;12.00;99.90;;;12.10;90.00;100531.13;5116758;28;20285;-74
2021/12/29 08:05:50;;;;;;;17.33;7.70;;;11.90;99.90;;;11.46;90.11;100426.06;5116909;28;20145;-71
2021/12/29 08:08:18;;;;;;;24.77;7.55;;;12.00;99.90;;;12.05;90.32;100530.28;5117049;28;20079;-72
2021/12/29 08:10:47;;;;;;;12.88;7.10;;;11.90;99.90;;;12.10;90.17;100547.88;5116707;28;20059;-71
2021/12/29 08:13:15;;;;;;;16.95;8.20;;;11.90;99.90;;;12.09;90.15;100548.78;5116681;28;20042;-75
2021/12/29 08:15:44;;;;;;;16.02;7.30;;;11.90;99.90;;;12.09;90.02;100547.91;5116511;28;20051;-76
2021/12/29 08:18:12;;;;;;;15.77;7.72;;;11.90;99.90;;;11.98;90.26;100532.16;5098173;28;20081;-72
2021/12/29 08:20:42;;;;;;;17.23;8.20;;;11.80;99.90;;;12.06;90.02;100532.91;5117128;28;20122;-71
2021/12/29 08:23:12;;;;;;;16.60;7.93;;;11.80;99.90;;;11.96;90.10;100514.53;5098462;28;20040;-76
2021/12/29 08:25:41;;;;;;;17.30;7.65;;;11.80;99.90;;;11.85;90.08;100496.16;5117134;28;20803;-73
2021/12/29 08:28:09;;;;;;;16.13;7.47;;;11.80;99.90;;;11.98;89.99;100536.59;5116421;28;20054;-72
2021/12/29 08:30:37;;;;;;;14.25;7.43;;;11.80;99.90;;;12.01;90.02;100536.53;5116202;28;20105;-71
2021/12/29 08:33:06;;;;;;;15.88;7.53;;;11.80;99.90;;;12.00;90.01;100543.59;5116280;28;20508;-74
2021/12/29 08:35:35;;;;;;;15.23;6.93;;;11.80;99.90;;;12.01;90.13;100555.97;5116213;28;20047;-77
2021/12/29 08:38:05;;;;;;;14.13;7.13;;;11.80;99.90;;;11.91;89.92;100537.56;5116530;28;20067;-77
2021/12/29 08:40:33;;;;;;;11.68;6.60;;;11.80;99.90;;;12.01;89.84;100544.50;5116626;28;20063;-71
2021/12/29 08:43:03;;;;;;;12.48;7.38;;;11.80;99.90;;;12.02;89.53;100548.91;5116126;28;20082;-75
2021/12/29 08:45:33;;;;;;;12.25;6.63;;;11.80;99.90;;;11.91;89.30;100540.22;5116299;28;20043;-69
2021/12/29 08:48:04;;;;;;;12.00;7.00;;;11.80;99.90;;;11.79;89.34;100509.50;5116056;28;20051;-76
2021/12/29 08:50:33;;;;;;;15.90;6.75;;;11.70;99.90;;;11.40;89.05;100436.75;5116205;28;20389;-71
2021/12/29 08:53:06;;;;;;;11.77;6.88;;;11.80;99.90;;;11.97;88.78;100533.06;5115993;28;20097;-77
2021/12/29 08:55:36;;;;;;;15.95;7.30;;;11.80;99.90;;;11.89;88.13;100534.06;5116008;28;20050;-71
2021/12/29 08:58:06;;;;;;;12.38;6.53;;;11.70;99.90;;;11.67;87.98;100512.34;5115844;28;20032;-71
2021/12/29 09:00:35;;;;;;;16.57;6.97;;;11.60;99.90;;;11.71;88.35;100530.81;5115953;28;20388;-71
2021/12/29 09:03:06;;;;;;;14.32;7.00;;;11.60;99.90;;;11.59;88.69;100530.94;5115516;28;20319;-78
2021/12/29 09:05:35;;;;;;;16.38;7.13;;;11.50;99.90;;;11.62;88.86;100536.22;5116372;28;20118;-74
2021/12/29 09:08:06;;;;;;;12.35;7.40;;;11.50;99.90;;;11.65;89.35;100541.47;5115665;28;20070;-74
2021/12/29 09:10:34;;;;;;;14.57;7.97;;;11.50;99.90;;;11.69;89.03;100548.50;5115563;28;20558;-73
2021/12/29 09:13:03;;;;;;;13.10;7.53;;;11.50;99.90;;;11.70;88.81;100544.06;5097475;28;20476;-71
2021/12/29 09:15:32;;;;;;;16.48;8.13;;;11.50;99.90;;;11.71;88.59;100530.81;5115540;28;20533;-70
2021/12/29 09:18:01;;;;;;;12.70;8.18;;;11.50;99.90;;;11.57;88.23;100527.47;5097374;28;20048;-70
2021/12/29 09:20:32;;;;;;;12.00;8.05;;;11.50;99.90;;;11.59;88.17;100535.38;5115471;28;20492;-70
2021/12/29 09:23:06;;;;;;;13.57;7.63;;;11.40;99.90;;;11.54;88.04;100524.84;5115426;28;20047;-70
2021/12/29 09:25:39;;;;;;;13.80;7.70;;;11.40;99.90;;;11.45;88.28;100506.44;5115314;28;20039;-75
2021/12/29 09:28:09;;;;;;;11.02;8.05;;;11.40;99.90;;;11.59;88.38;100533.59;5115466;28;20044;-74
2021/12/29 09:30:41;;;;;;;13.43;8.05;;;11.40;99.90;;;11.65;88.45;100533.53;5115306;28;20097;-71
2021/12/29 09:33:10;;;;;;;9.57;7.15;;;11.50;99.90;;;11.68;88.06;100529.97;5115472;28;20164;-74
2021/12/29 09:35:39;;;;;;;15.35;7.30;;;11.50;99.90;;;11.69;87.93;100519.34;5115026;28;20408;-71
2021/12/29 09:38:10;;;;;;;9.93;6.85;;;11.50;99.90;;;11.61;88.22;100523.84;5115642;28;20047;-70
2021/12/29 09:40:39;;;;;;;;;;;11.50;99.90;;;11.64;87.80;100528.22;5115987;28;20043;-70
2021/12/29 09:43:08;;;;;;;11.38;7.32;;;11.60;99.90;;;11.56;88.33;100533.63;5096953;28;20347;-70
2021/12/29 09:45:37;;;;;;;9.20;6.95;;;11.50;99.90;;;11.49;88.55;100524.03;5114899;28;20508;-74
2021/12/29 09:48:06;;;;;;;15.23;7.20;;;11.40;99.90;;;11.47;88.85;100520.53;5114922;28;20119;-70
2021/12/29 09:50:35;;;;;;;12.10;6.93;;;11.40;99.90;;;11.14;89.58;100510.38;5114822;28;20151;-74
2021/12/29 09:53:06;;;;;;;13.35;6.47;;;11.20;99.90;;;11.04;90.35;100508.75;5114731;28;20089;-73
2021/12/29 09:55:37;;;;;;;9.95;6.32;;;11.10;99.90;;;11.00;91.22;100514.06;5114944;28;20043;-72
2021/12/29 09:58:06;;;;;;;12.23;7.05;;;11.00;99.90;;;10.89;91.26;100499.22;5115148;28;20089;-72
2021/12/29 10:00:40;;;;;;;14.90;7.28;;;10.90;99.90;;;10.87;91.75;100501.00;5114449;28;20104;-71
2021/12/29 10:03:12;;;;;;;14.27;6.95;;;10.90;99.90;;;11.05;91.96;100499.91;5114744;28;20048;-72
2021/12/29 10:05:44;;;;;;;12.10;7.65;;;10.90;99.90;;;11.01;91.70;100495.56;5115000;28;20048;-71
2021/12/29 10:08:15;;;;;;;13.05;7.82;;;11.00;99.90;;;11.15;91.84;100485.66;5115064;28;20116;-72
2021/12/29 10:10:49;;;;;;;18.15;8.13;;;11.00;99.90;;;11.25;91.75;100489.03;5114396;28;20039;-71
2021/12/29 10:13:18;;;;;;;12.75;8.25;;;11.10;99.90;;;11.36;91.28;100489.81;5114755;28;20097;-72
2021/12/29 10:15:52;;;;;;;12.80;8.05;;;11.20;99.90;;;11.43;91.05;100492.34;5113587;28;20040;-71
2021/12/29 10:18:23;;;;;;;19.65;9.20;;;11.30;99.90;;;11.45;90.68;100493.19;5096249;28;20079;-71